sensor_id;sensor_type;location;lat;lon;timestamp;temperature;humidity
25208;DHT22;13153;52.316;21.166;2022-10-16T00:00:44;14.80;99.90
25208;DHT22;13153;52.316;21.166;2022-10-16T00:03:11;14.80;99.90
25208;DHT22;13153;52.316;21.166;2022-10-16T00:05:42;14.80;99.90
25208;DHT22;13153;52.316;21.166;2022-10-16T00:08:12;14.80;99.90
25208;DHT22;13153;52.316;21.166;2022-10-16T00:10:39;14.80;99.90
25208;DHT22;13153;52.316;21.166;2022-10-16T00:13:06;14.80;99.90
25208;DHT22;13153;52.316;21.166;2022-10-16T00:15:34;14.80;99.90
25208;DHT22;13153;52.316;21.166;2022-10-16T00:18:04;14.80;99.90
25208;DHT22;13153;52.316;21.166;2022-10-16T00:20:33;14.80;99.90
25208;DHT22;13153;52.316;21.166;2022-10-16T00:23:00;14.90;99.90
25208;DHT22;13153;52.316;21.166;2022-10-16T00:25:25;14.80;99.90
25208;DHT22;13153;52.316;21.166;2022-10-16T00:27:51;14.80;99.90
25208;DHT22;13153;52.316;21.166;2022-10-16T00:30:17;14.80;99.90
25208;DHT22;13153;52.316;21.166;2022-10-16T00:32:43;14.90;99.90
25208;DHT22;13153;52.316;21.166;2022-10-16T00:35:08;14.80;99.90
25208;DHT22;13153;52.316;21.166;2022-10-16T00:37:34;14.80;99.90
25208;DHT22;13153;52.316;21.166;2022-10-16T00:40:00;14.80;99.90
25208;DHT22;13153;52.316;21.166;2022-10-16T00:42:26;14.80;99.90
25208;DHT22;13153;52.316;21.166;2022-10-16T00:44:55;14.80;99.90
25208;DHT22;13153;52.316;21.166;2022-10-16T00:50:20;14.80;99.90
25208;DHT22;13153;52.316;21.166;2022-10-16T00:52:53;14.80;99.90
25208;DHT22;13153;52.316;21.166;2022-10-16T00:55:20;14.80;99.90
25208;DHT22;13153;52.316;21.166;2022-10-16T00:57:48;14.80;99.90
25208;DHT22;13153;52.316;21.166;2022-10-16T01:00:22;14.70;99.90
25208;DHT22;13153;52.316;21.166;2022-10-16T01:02:55;14.70;99.90
25208;DHT22;13153;52.316;21.166;2022-10-16T01:05:28;14.70;99.90
25208;DHT22;13153;52.316;21.166;2022-10-16T01:11:02;14.70;99.90
25208;DHT22;13153;52.316;21.166;2022-10-16T01:13:42;14.60;99.90
25208;DHT22;13153;52.316;21.166;2022-10-16T01:19:12;14.50;99.90
25208;DHT22;13153;52.316;21.166;2022-10-16T01:21:44;14.50;99.90
25208;DHT22;13153;52.316;21.166;2022-10-16T01:27:24;14.40;99.90
25208;DHT22;13153;52.316;21.166;2022-10-16T01:30:23;14.40;99.90
25208;DHT22;13153;52.316;21.166;2022-10-16T01:33:14;14.40;99.90
25208;DHT22;13153;52.316;21.166;2022-10-16T01:35:53;14.40;99.90
25208;DHT22;13153;52.316;21.166;2022-10-16T01:38:33;14.30;99.90
25208;DHT22;13153;52.316;21.166;2022-10-16T01:41:25;14.40;99.90
25208;DHT22;13153;52.316;21.166;2022-10-16T01:44:09;14.30;99.90
25208;DHT22;13153;52.316;21.166;2022-10-16T01:46:41;14.40;99.90
25208;DHT22;13153;52.316;21.166;2022-10-16T01:49:12;14.40;99.90
25208;DHT22;13153;52.316;21.166;2022-10-16T01:51:38;14.40;99.90
25208;DHT22;13153;52.316;21.166;2022-10-16T01:54:07;14.40;99.90
25208;DHT22;13153;52.316;21.166;2022-10-16T01:56:35;14.40;99.90
25208;DHT22;13153;52.316;21.166;2022-10-16T01:59:11;14.50;99.90
25208;DHT22;13153;52.316;21.166;2022-10-16T02:01:44;14.40;99.90
25208;DHT22;13153;52.316;21.166;2022-10-16T02:04:54;14.40;99.90
25208;DHT22;13153;52.316;21.166;2022-10-16T02:07:30;14.40;99.90
25208;DHT22;13153;52.316;21.166;2022-10-16T02:09:56;14.40;99.90
25208;DHT22;13153;52.316;21.166;2022-10-16T02:12:31;14.30;99.90
25208;DHT22;13153;52.316;21.166;2022-10-16T02:15:01;14.30;99.90
25208;DHT22;13153;52.316;21.166;2022-10-16T02:17:28;14.30;99.90
25208;DHT22;13153;52.316;21.166;2022-10-16T02:19:55;14.30;99.90
25208;DHT22;13153;52.316;21.166;2022-10-16T02:22:27;14.30;99.90
25208;DHT22;13153;52.316;21.166;2022-10-16T02:24:59;14.30;99.90
25208;DHT22;13153;52.316;21.166;2022-10-16T02:30:14;14.20;99.90
25208;DHT22;13153;52.316;21.166;2022-10-16T02:32:44;14.20;99.90
25208;DHT22;13153;52.316;21.166;2022-10-16T02:35:13;14.10;99.90
25208;DHT22;13153;52.316;21.166;2022-10-16T02:37:42;14.10;99.90
25208;DHT22;13153;52.316;21.166;2022-10-16T02:40:09;14.10;99.90
25208;DHT22;13153;52.316;21.166;2022-10-16T02:42:38;14.10;99.90
25208;DHT22;13153;52.316;21.166;2022-10-16T02:45:07;14.10;99.90
25208;DHT22;13153;52.316;21.166;2022-10-16T02:47:34;14.10;99.90
25208;DHT22;13153;52.316;21.166;2022-10-16T02:50:00;14.10;99.90
25208;DHT22;13153;52.316;21.166;2022-10-16T02:52:26;14.00;99.90
25208;DHT22;13153;52.316;21.166;2022-10-16T02:54:52;14.00;99.90
25208;DHT22;13153;52.316;21.166;2022-10-16T02:57:18;14.00;99.90
25208;DHT22;13153;52.316;21.166;2022-10-16T02:59:45;14.00;99.90
25208;DHT22;13153;52.316;21.166;2022-10-16T03:02:11;14.10;99.90
25208;DHT22;13153;52.316;21.166;2022-10-16T03:04:37;14.00;99.90
25208;DHT22;13153;52.316;21.166;2022-10-16T03:07:03;14.00;99.90
25208;DHT22;13153;52.316;21.166;2022-10-16T03:09:29;14.00;99.90
25208;DHT22;13153;52.316;21.166;2022-10-16T03:11:55;14.10;99.90
25208;DHT22;13153;52.316;21.166;2022-10-16T03:14:21;14.10;99.90
25208;DHT22;13153;52.316;21.166;2022-10-16T03:16:47;14.00;99.90
25208;DHT22;13153;52.316;21.166;2022-10-16T03:19:12;14.00;99.90
25208;DHT22;13153;52.316;21.166;2022-10-16T03:21:38;14.00;99.90
25208;DHT22;13153;52.316;21.166;2022-10-16T03:24:04;14.00;99.90
25208;DHT22;13153;52.316;21.166;2022-10-16T03:26:30;14.00;99.90
25208;DHT22;13153;52.316;21.166;2022-10-16T03:28:56;14.00;99.90
25208;DHT22;13153;52.316;21.166;2022-10-16T03:31:22;14.00;99.90
25208;DHT22;13153;52.316;21.166;2022-10-16T03:33:48;14.00;99.90
25208;DHT22;13153;52.316;21.166;2022-10-16T03:36:13;14.00;99.90
25208;DHT22;13153;52.316;21.166;2022-10-16T03:38:39;14.00;99.90
25208;DHT22;13153;52.316;21.166;2022-10-16T03:41:05;14.00;99.90
25208;DHT22;13153;52.316;21.166;2022-10-16T03:43:33;14.10;99.90
25208;DHT22;13153;52.316;21.166;2022-10-16T03:45:59;14.10;99.90
25208;DHT22;13153;52.316;21.166;2022-10-16T03:48:24;14.10;99.90
25208;DHT22;13153;52.316;21.166;2022-10-16T03:50:50;14.10;99.90
25208;DHT22;13153;52.316;21.166;2022-10-16T03:53:17;14.10;99.90
25208;DHT22;13153;52.316;21.166;2022-10-16T03:55:43;14.00;99.90
25208;DHT22;13153;52.316;21.166;2022-10-16T03:58:10;14.00;99.90
25208;DHT22;13153;52.316;21.166;2022-10-16T04:00:43;14.00;99.90
25208;DHT22;13153;52.316;21.166;2022-10-16T04:03:10;14.00;99.90
25208;DHT22;13153;52.316;21.166;2022-10-16T04:05:36;14.00;99.90
25208;DHT22;13153;52.316;21.166;2022-10-16T04:08:02;14.00;99.90
25208;DHT22;13153;52.316;21.166;2022-10-16T04:10:28;14.00;99.90
25208;DHT22;13153;52.316;21.166;2022-10-16T04:12:54;14.00;99.90
25208;DHT22;13153;52.316;21.166;2022-10-16T04:15:22;14.00;99.90
25208;DHT22;13153;52.316;21.166;2022-10-16T04:17:48;14.00;99.90
25208;DHT22;13153;52.316;21.166;2022-10-16T04:20:14;14.00;99.90
25208;DHT22;13153;52.316;21.166;2022-10-16T04:22:40;14.00;99.90
25208;DHT22;13153;52.316;21.166;2022-10-16T04:25:06;14.00;99.90
25208;DHT22;13153;52.316;21.166;2022-10-16T04:27:32;14.00;99.90
25208;DHT22;13153;52.316;21.166;2022-10-16T04:29:59;14.00;99.90
25208;DHT22;13153;52.316;21.166;2022-10-16T04:32:26;13.90;99.90
25208;DHT22;13153;52.316;21.166;2022-10-16T04:34:52;13.90;99.90
25208;DHT22;13153;52.316;21.166;2022-10-16T04:37:18;13.80;99.90
25208;DHT22;13153;52.316;21.166;2022-10-16T04:39:44;13.90;99.90
25208;DHT22;13153;52.316;21.166;2022-10-16T04:42:10;13.80;99.90
25208;DHT22;13153;52.316;21.166;2022-10-16T04:44:36;13.80;99.90
25208;DHT22;13153;52.316;21.166;2022-10-16T04:47:02;13.80;99.90
25208;DHT22;13153;52.316;21.166;2022-10-16T04:49:28;13.80;99.90
25208;DHT22;13153;52.316;21.166;2022-10-16T04:51:54;13.70;99.90
25208;DHT22;13153;52.316;21.166;2022-10-16T04:54:20;13.70;99.90
25208;DHT22;13153;52.316;21.166;2022-10-16T04:56:45;13.70;99.90
25208;DHT22;13153;52.316;21.166;2022-10-16T04:59:17;13.70;99.90
25208;DHT22;13153;52.316;21.166;2022-10-16T05:01:44;13.70;99.90
25208;DHT22;13153;52.316;21.166;2022-10-16T05:04:10;13.70;99.90
25208;DHT22;13153;52.316;21.166;2022-10-16T05:06:36;13.70;99.90
25208;DHT22;13153;52.316;21.166;2022-10-16T05:09:07;13.60;99.90
25208;DHT22;13153;52.316;21.166;2022-10-16T05:11:34;13.60;99.90
25208;DHT22;13153;52.316;21.166;2022-10-16T05:14:00;13.60;99.90
25208;DHT22;13153;52.316;21.166;2022-10-16T05:16:26;13.60;99.90
25208;DHT22;13153;52.316;21.166;2022-10-16T05:18:52;13.60;99.90
25208;DHT22;13153;52.316;21.166;2022-10-16T05:21:19;13.60;99.90
25208;DHT22;13153;52.316;21.166;2022-10-16T05:23:45;13.60;99.90
25208;DHT22;13153;52.316;21.166;2022-10-16T05:26:11;13.60;99.90
25208;DHT22;13153;52.316;21.166;2022-10-16T05:28:37;13.60;99.90
25208;DHT22;13153;52.316;21.166;2022-10-16T05:31:07;13.70;99.90
25208;DHT22;13153;52.316;21.166;2022-10-16T05:33:35;13.80;99.90
25208;DHT22;13153;52.316;21.166;2022-10-16T05:36:02;14.00;99.90
25208;DHT22;13153;52.316;21.166;2022-10-16T05:38:29;14.00;99.90
25208;DHT22;13153;52.316;21.166;2022-10-16T05:40:55;14.00;99.90
25208;DHT22;13153;52.316;21.166;2022-10-16T05:43:21;14.00;99.90
25208;DHT22;13153;52.316;21.166;2022-10-16T05:45:58;14.00;99.90
25208;DHT22;13153;52.316;21.166;2022-10-16T05:48:26;14.00;99.90
25208;DHT22;13153;52.316;21.166;2022-10-16T05:51:00;14.00;99.90
25208;DHT22;13153;52.316;21.166;2022-10-16T05:53:30;14.00;99.90
25208;DHT22;13153;52.316;21.166;2022-10-16T05:55:58;14.10;99.90
25208;DHT22;13153;52.316;21.166;2022-10-16T05:58:28;14.10;99.90
25208;DHT22;13153;52.316;21.166;2022-10-16T06:01:00;14.10;99.90
25208;DHT22;13153;52.316;21.166;2022-10-16T06:03:28;14.10;99.90
25208;DHT22;13153;52.316;21.166;2022-10-16T06:05:54;14.30;99.90
25208;DHT22;13153;52.316;21.166;2022-10-16T06:08:22;14.50;99.90
25208;DHT22;13153;52.316;21.166;2022-10-16T06:10:49;14.60;99.90
25208;DHT22;13153;52.316;21.166;2022-10-16T06:13:25;14.70;99.90
25208;DHT22;13153;52.316;21.166;2022-10-16T06:15:51;14.90;99.90
25208;DHT22;13153;52.316;21.166;2022-10-16T06:18:16;15.10;99.90
25208;DHT22;13153;52.316;21.166;2022-10-16T06:20:42;15.40;99.90
25208;DHT22;13153;52.316;21.166;2022-10-16T06:23:08;15.80;99.90
25208;DHT22;13153;52.316;21.166;2022-10-16T06:25:33;16.10;99.90
25208;DHT22;13153;52.316;21.166;2022-10-16T06:27:59;16.40;99.90
25208;DHT22;13153;52.316;21.166;2022-10-16T06:30:25;16.60;99.90
25208;DHT22;13153;52.316;21.166;2022-10-16T06:32:51;16.80;99.90
25208;DHT22;13153;52.316;21.166;2022-10-16T06:35:16;16.90;99.90
25208;DHT22;13153;52.316;21.166;2022-10-16T06:37:42;17.10;99.90
25208;DHT22;13153;52.316;21.166;2022-10-16T06:40:08;17.30;99.90
25208;DHT22;13153;52.316;21.166;2022-10-16T06:42:34;17.40;99.90
25208;DHT22;13153;52.316;21.166;2022-10-16T06:45:00;17.50;99.90
25208;DHT22;13153;52.316;21.166;2022-10-16T06:47:27;17.60;99.90
25208;DHT22;13153;52.316;21.166;2022-10-16T06:49:53;17.70;99.90
25208;DHT22;13153;52.316;21.166;2022-10-16T06:52:18;17.80;99.90
25208;DHT22;13153;52.316;21.166;2022-10-16T06:54:44;17.90;99.90
25208;DHT22;13153;52.316;21.166;2022-10-16T06:57:10;18.00;99.90
25208;DHT22;13153;52.316;21.166;2022-10-16T06:59:35;18.00;99.90
25208;DHT22;13153;52.316;21.166;2022-10-16T07:02:01;17.90;99.90
25208;DHT22;13153;52.316;21.166;2022-10-16T07:04:27;17.90;99.90
25208;DHT22;13153;52.316;21.166;2022-10-16T07:06:53;17.90;99.90
25208;DHT22;13153;52.316;21.166;2022-10-16T07:09:19;18.00;99.90
25208;DHT22;13153;52.316;21.166;2022-10-16T07:11:44;18.20;99.90
25208;DHT22;13153;52.316;21.166;2022-10-16T07:14:18;18.30;99.90
25208;DHT22;13153;52.316;21.166;2022-10-16T07:16:45;18.40;99.90
25208;DHT22;13153;52.316;21.166;2022-10-16T07:19:12;18.40;99.90
25208;DHT22;13153;52.316;21.166;2022-10-16T07:21:40;18.50;99.90
25208;DHT22;13153;52.316;21.166;2022-10-16T07:24:11;18.40;99.90
25208;DHT22;13153;52.316;21.166;2022-10-16T07:26:39;18.20;99.90
25208;DHT22;13153;52.316;21.166;2022-10-16T07:29:14;17.90;99.90
25208;DHT22;13153;52.316;21.166;2022-10-16T07:31:43;17.60;99.90
25208;DHT22;13153;52.316;21.166;2022-10-16T07:34:10;17.30;99.90
25208;DHT22;13153;52.316;21.166;2022-10-16T07:36:36;17.00;99.90
25208;DHT22;13153;52.316;21.166;2022-10-16T07:39:03;16.80;99.90
25208;DHT22;13153;52.316;21.166;2022-10-16T07:41:29;16.60;99.90
25208;DHT22;13153;52.316;21.166;2022-10-16T07:43:58;16.50;99.90
25208;DHT22;13153;52.316;21.166;2022-10-16T07:46:27;16.50;99.90
25208;DHT22;13153;52.316;21.166;2022-10-16T07:48:54;16.60;99.90
25208;DHT22;13153;52.316;21.166;2022-10-16T07:51:22;16.70;99.90
25208;DHT22;13153;52.316;21.166;2022-10-16T07:53:49;16.80;99.90
25208;DHT22;13153;52.316;21.166;2022-10-16T07:56:17;16.80;99.90
25208;DHT22;13153;52.316;21.166;2022-10-16T07:58:44;16.70;99.90
25208;DHT22;13153;52.316;21.166;2022-10-16T08:01:13;16.70;99.90
25208;DHT22;13153;52.316;21.166;2022-10-16T08:03:45;16.90;99.90
25208;DHT22;13153;52.316;21.166;2022-10-16T08:06:13;17.00;99.90
25208;DHT22;13153;52.316;21.166;2022-10-16T08:08:40;17.00;99.90
25208;DHT22;13153;52.316;21.166;2022-10-16T08:11:05;17.10;99.90
25208;DHT22;13153;52.316;21.166;2022-10-16T08:13:32;17.20;99.90
25208;DHT22;13153;52.316;21.166;2022-10-16T08:15:58;17.20;99.90
25208;DHT22;13153;52.316;21.166;2022-10-16T08:18:24;17.20;99.90
25208;DHT22;13153;52.316;21.166;2022-10-16T08:20:57;17.30;99.90
25208;DHT22;13153;52.316;21.166;2022-10-16T08:23:25;17.40;99.90
25208;DHT22;13153;52.316;21.166;2022-10-16T08:25:53;17.60;99.90
25208;DHT22;13153;52.316;21.166;2022-10-16T08:28:19;17.80;99.90
25208;DHT22;13153;52.316;21.166;2022-10-16T08:30:45;18.00;99.90
25208;DHT22;13153;52.316;21.166;2022-10-16T08:33:11;18.10;99.90
25208;DHT22;13153;52.316;21.166;2022-10-16T08:35:37;18.20;99.90
25208;DHT22;13153;52.316;21.166;2022-10-16T08:38:04;18.20;99.90
25208;DHT22;13153;52.316;21.166;2022-10-16T08:40:32;18.10;99.90
25208;DHT22;13153;52.316;21.166;2022-10-16T08:49:09;18.00;99.90
25208;DHT22;13153;52.316;21.166;2022-10-16T08:51:38;18.00;99.90
25208;DHT22;13153;52.316;21.166;2022-10-16T08:54:49;18.00;99.90
25208;DHT22;13153;52.316;21.166;2022-10-16T08:57:28;18.10;99.90
25208;DHT22;13153;52.316;21.166;2022-10-16T08:59:54;18.10;99.90
25208;DHT22;13153;52.316;21.166;2022-10-16T09:02:38;18.20;99.90
25208;DHT22;13153;52.316;21.166;2022-10-16T09:05:25;18.20;99.90
25208;DHT22;13153;52.316;21.166;2022-10-16T09:08:08;18.20;99.90
25208;DHT22;13153;52.316;21.166;2022-10-16T09:10:57;18.20;99.90
25208;DHT22;13153;52.316;21.166;2022-10-16T09:16:32;18.40;99.90
25208;DHT22;13153;52.316;21.166;2022-10-16T09:19:24;18.60;99.90
25208;DHT22;13153;52.316;21.166;2022-10-16T09:21:57;18.90;99.90
25208;DHT22;13153;52.316;21.166;2022-10-16T09:24:28;18.90;99.90
25208;DHT22;13153;52.316;21.166;2022-10-16T09:26:55;18.80;99.90
25208;DHT22;13153;52.316;21.166;2022-10-16T09:29:21;19.00;99.90
25208;DHT22;13153;52.316;21.166;2022-10-16T09:31:51;19.10;99.90
25208;DHT22;13153;52.316;21.166;2022-10-16T09:34:30;19.20;99.90
25208;DHT22;13153;52.316;21.166;2022-10-16T09:37:05;19.20;99.90
25208;DHT22;13153;52.316;21.166;2022-10-16T09:39:53;19.20;99.90
25208;DHT22;13153;52.316;21.166;2022-10-16T09:44:57;19.10;99.90
25208;DHT22;13153;52.316;21.166;2022-10-16T09:47:25;19.00;99.90
25208;DHT22;13153;52.316;21.166;2022-10-16T09:50:00;18.90;99.90
25208;DHT22;13153;52.316;21.166;2022-10-16T09:52:31;18.90;99.90
25208;DHT22;13153;52.316;21.166;2022-10-16T09:55:13;18.90;99.90
25208;DHT22;13153;52.316;21.166;2022-10-16T09:57:52;18.80;99.90
25208;DHT22;13153;52.316;21.166;2022-10-16T10:00:20;18.80;99.90
25208;DHT22;13153;52.316;21.166;2022-10-16T10:02:47;18.80;99.90
25208;DHT22;13153;52.316;21.166;2022-10-16T10:05:23;18.80;99.90
25208;DHT22;13153;52.316;21.166;2022-10-16T10:07:58;18.80;99.90
25208;DHT22;13153;52.316;21.166;2022-10-16T10:10:30;18.90;99.90
25208;DHT22;13153;52.316;21.166;2022-10-16T10:12:57;19.00;99.90
25208;DHT22;13153;52.316;21.166;2022-10-16T10:15:25;19.10;99.90
25208;DHT22;13153;52.316;21.166;2022-10-16T10:17:57;19.10;99.90
25208;DHT22;13153;52.316;21.166;2022-10-16T10:20:27;19.20;99.90
25208;DHT22;13153;52.316;21.166;2022-10-16T10:22:57;19.20;99.90
25208;DHT22;13153;52.316;21.166;2022-10-16T10:25:39;19.40;99.90
25208;DHT22;13153;52.316;21.166;2022-10-16T10:31:30;19.40;99.90
25208;DHT22;13153;52.316;21.166;2022-10-16T10:34:16;19.40;99.90
25208;DHT22;13153;52.316;21.166;2022-10-16T10:37:08;19.50;99.90
25208;DHT22;13153;52.316;21.166;2022-10-16T10:40:08;19.40;99.90
25208;DHT22;13153;52.316;21.166;2022-10-16T10:43:23;19.40;99.90
25208;DHT22;13153;52.316;21.166;2022-10-16T10:46:02;19.40;99.90
25208;DHT22;13153;52.316;21.166;2022-10-16T10:49:15;19.50;99.90
25208;DHT22;13153;52.316;21.166;2022-10-16T10:51:56;19.40;99.90
25208;DHT22;13153;52.316;21.166;2022-10-16T10:55:14;19.30;99.90
25208;DHT22;13153;52.316;21.166;2022-10-16T11:06:34;19.30;99.90
25208;DHT22;13153;52.316;21.166;2022-10-16T11:09:15;19.20;99.90
25208;DHT22;13153;52.316;21.166;2022-10-16T11:14:30;19.10;99.90
25208;DHT22;13153;52.316;21.166;2022-10-16T11:17:15;19.20;99.90
25208;DHT22;13153;52.316;21.166;2022-10-16T11:19:51;19.30;99.90
25208;DHT22;13153;52.316;21.166;2022-10-16T11:25:23;19.40;99.90
25208;DHT22;13153;52.316;21.166;2022-10-16T11:30:34;19.50;99.90
25208;DHT22;13153;52.316;21.166;2022-10-16T11:39:01;19.70;99.90
25208;DHT22;13153;52.316;21.166;2022-10-16T11:41:50;19.70;99.90
25208;DHT22;13153;52.316;21.166;2022-10-16T11:48:25;19.70;99.90
25208;DHT22;13153;52.316;21.166;2022-10-16T11:57:18;19.60;99.90
25208;DHT22;13153;52.316;21.166;2022-10-16T12:00:01;19.50;99.90
25208;DHT22;13153;52.316;21.166;2022-10-16T12:06:02;19.40;99.90
25208;DHT22;13153;52.316;21.166;2022-10-16T12:08:33;19.50;99.90
25208;DHT22;13153;52.316;21.166;2022-10-16T12:14:33;19.50;99.90
25208;DHT22;13153;52.316;21.166;2022-10-16T12:20:21;19.60;99.90
25208;DHT22;13153;52.316;21.166;2022-10-16T12:23:01;19.70;99.90
25208;DHT22;13153;52.316;21.166;2022-10-16T12:25:35;19.80;99.90
25208;DHT22;13153;52.316;21.166;2022-10-16T12:28:22;19.80;99.90
25208;DHT22;13153;52.316;21.166;2022-10-16T12:30:58;19.90;99.90
25208;DHT22;13153;52.316;21.166;2022-10-16T12:33:28;20.00;99.90
25208;DHT22;13153;52.316;21.166;2022-10-16T12:35:58;20.10;99.90
25208;DHT22;13153;52.316;21.166;2022-10-16T12:38:46;20.20;99.90
25208;DHT22;13153;52.316;21.166;2022-10-16T12:41:31;20.20;99.90
25208;DHT22;13153;52.316;21.166;2022-10-16T12:43:59;20.20;99.90
25208;DHT22;13153;52.316;21.166;2022-10-16T12:51:40;20.00;99.90
25208;DHT22;13153;52.316;21.166;2022-10-16T12:54:19;20.00;99.90
25208;DHT22;13153;52.316;21.166;2022-10-16T13:00:15;20.00;99.90
25208;DHT22;13153;52.316;21.166;2022-10-16T13:06:16;19.90;99.90
25208;DHT22;13153;52.316;21.166;2022-10-16T13:16:04;19.70;99.90
25208;DHT22;13153;52.316;21.166;2022-10-16T13:18:56;19.70;99.90
25208;DHT22;13153;52.316;21.166;2022-10-16T13:21:49;19.80;99.90
25208;DHT22;13153;52.316;21.166;2022-10-16T13:30:18;19.80;99.90
25208;DHT22;13153;52.316;21.166;2022-10-16T13:32:51;19.90;99.90
25208;DHT22;13153;52.316;21.166;2022-10-16T13:35:29;19.80;99.90
25208;DHT22;13153;52.316;21.166;2022-10-16T13:38:05;19.80;99.90
25208;DHT22;13153;52.316;21.166;2022-10-16T13:41:16;19.80;99.90
25208;DHT22;13153;52.316;21.166;2022-10-16T13:43:50;19.60;99.90
25208;DHT22;13153;52.316;21.166;2022-10-16T13:46:23;19.60;99.90
25208;DHT22;13153;52.316;21.166;2022-10-16T13:49:11;19.50;99.90
25208;DHT22;13153;52.316;21.166;2022-10-16T13:51:38;19.40;99.90
25208;DHT22;13153;52.316;21.166;2022-10-16T13:54:04;19.40;99.90
25208;DHT22;13153;52.316;21.166;2022-10-16T13:56:32;19.30;99.90
25208;DHT22;13153;52.316;21.166;2022-10-16T13:59:03;19.30;99.90
25208;DHT22;13153;52.316;21.166;2022-10-16T14:01:39;19.20;99.90
25208;DHT22;13153;52.316;21.166;2022-10-16T14:04:09;19.20;99.90
25208;DHT22;13153;52.316;21.166;2022-10-16T14:06:41;19.10;99.90
25208;DHT22;13153;52.316;21.166;2022-10-16T14:09:25;19.10;99.90
25208;DHT22;13153;52.316;21.166;2022-10-16T14:11:57;19.10;99.90
25208;DHT22;13153;52.316;21.166;2022-10-16T14:14:51;19.00;99.90
25208;DHT22;13153;52.316;21.166;2022-10-16T14:17:23;19.00;99.90
25208;DHT22;13153;52.316;21.166;2022-10-16T14:19:57;19.00;99.90
25208;DHT22;13153;52.316;21.166;2022-10-16T14:22:39;19.00;99.90
25208;DHT22;13153;52.316;21.166;2022-10-16T14:27:44;18.90;99.90
25208;DHT22;13153;52.316;21.166;2022-10-16T14:30:16;18.90;99.90
25208;DHT22;13153;52.316;21.166;2022-10-16T14:36:14;18.90;99.90
25208;DHT22;13153;52.316;21.166;2022-10-16T14:39:05;18.90;99.90
25208;DHT22;13153;52.316;21.166;2022-10-16T14:41:46;18.90;99.90
25208;DHT22;13153;52.316;21.166;2022-10-16T14:44:14;18.90;99.90
25208;DHT22;13153;52.316;21.166;2022-10-16T14:46:43;18.90;99.90
25208;DHT22;13153;52.316;21.166;2022-10-16T14:51:36;18.80;99.90
25208;DHT22;13153;52.316;21.166;2022-10-16T14:54:04;18.80;99.90
25208;DHT22;13153;52.316;21.166;2022-10-16T14:56:42;18.80;99.90
25208;DHT22;13153;52.316;21.166;2022-10-16T14:59:36;18.90;99.90
25208;DHT22;13153;52.316;21.166;2022-10-16T15:07:47;18.90;99.90
25208;DHT22;13153;52.316;21.166;2022-10-16T15:10:18;18.80;99.90
25208;DHT22;13153;52.316;21.166;2022-10-16T15:12:46;18.80;99.90
25208;DHT22;13153;52.316;21.166;2022-10-16T15:15:33;18.80;99.90
25208;DHT22;13153;52.316;21.166;2022-10-16T15:18:02;18.80;99.90
25208;DHT22;13153;52.316;21.166;2022-10-16T15:20:32;18.70;99.90
25208;DHT22;13153;52.316;21.166;2022-10-16T15:23:12;18.70;99.90
25208;DHT22;13153;52.316;21.166;2022-10-16T15:25:45;18.70;99.90
25208;DHT22;13153;52.316;21.166;2022-10-16T15:28:14;18.70;99.90
25208;DHT22;13153;52.316;21.166;2022-10-16T15:30:42;18.70;99.90
25208;DHT22;13153;52.316;21.166;2022-10-16T15:33:14;18.60;99.90
25208;DHT22;13153;52.316;21.166;2022-10-16T15:35:42;18.60;99.90
25208;DHT22;13153;52.316;21.166;2022-10-16T15:38:12;18.60;99.90
25208;DHT22;13153;52.316;21.166;2022-10-16T15:40:39;18.60;99.90
25208;DHT22;13153;52.316;21.166;2022-10-16T15:43:06;18.60;99.90
25208;DHT22;13153;52.316;21.166;2022-10-16T15:45:32;18.50;99.90
25208;DHT22;13153;52.316;21.166;2022-10-16T15:47:58;18.50;99.90
25208;DHT22;13153;52.316;21.166;2022-10-16T15:50:24;18.50;99.90
25208;DHT22;13153;52.316;21.166;2022-10-16T15:52:50;18.50;99.90
25208;DHT22;13153;52.316;21.166;2022-10-16T15:55:16;18.40;99.90
25208;DHT22;13153;52.316;21.166;2022-10-16T15:57:44;18.50;99.90
25208;DHT22;13153;52.316;21.166;2022-10-16T16:00:13;18.40;99.90
25208;DHT22;13153;52.316;21.166;2022-10-16T16:02:42;18.40;99.90
25208;DHT22;13153;52.316;21.166;2022-10-16T16:05:09;18.40;99.90
25208;DHT22;13153;52.316;21.166;2022-10-16T16:07:37;18.40;99.90
25208;DHT22;13153;52.316;21.166;2022-10-16T16:10:05;18.40;99.90
25208;DHT22;13153;52.316;21.166;2022-10-16T16:12:33;18.40;99.90
25208;DHT22;13153;52.316;21.166;2022-10-16T16:15:00;18.40;99.90
25208;DHT22;13153;52.316;21.166;2022-10-16T16:17:26;18.30;99.90
25208;DHT22;13153;52.316;21.166;2022-10-16T16:19:51;18.30;99.90
25208;DHT22;13153;52.316;21.166;2022-10-16T16:22:17;18.30;99.90
25208;DHT22;13153;52.316;21.166;2022-10-16T16:24:43;18.30;99.90
25208;DHT22;13153;52.316;21.166;2022-10-16T16:27:09;18.30;99.90
25208;DHT22;13153;52.316;21.166;2022-10-16T16:29:35;18.30;99.90
25208;DHT22;13153;52.316;21.166;2022-10-16T16:32:01;18.20;99.90
25208;DHT22;13153;52.316;21.166;2022-10-16T16:34:28;18.30;99.90
25208;DHT22;13153;52.316;21.166;2022-10-16T16:36:54;18.20;99.90
25208;DHT22;13153;52.316;21.166;2022-10-16T16:39:21;18.20;99.90
25208;DHT22;13153;52.316;21.166;2022-10-16T16:41:48;18.20;99.90
25208;DHT22;13153;52.316;21.166;2022-10-16T16:44:15;18.20;99.90
25208;DHT22;13153;52.316;21.166;2022-10-16T16:46:43;18.20;99.90
25208;DHT22;13153;52.316;21.166;2022-10-16T16:49:11;18.10;99.90
25208;DHT22;13153;52.316;21.166;2022-10-16T16:51:38;18.10;99.90
25208;DHT22;13153;52.316;21.166;2022-10-16T16:54:05;18.10;99.90
25208;DHT22;13153;52.316;21.166;2022-10-16T16:56:33;18.10;99.90
25208;DHT22;13153;52.316;21.166;2022-10-16T16:59:00;18.10;99.90
25208;DHT22;13153;52.316;21.166;2022-10-16T17:01:27;18.10;99.90
25208;DHT22;13153;52.316;21.166;2022-10-16T17:03:55;18.10;99.90
25208;DHT22;13153;52.316;21.166;2022-10-16T17:06:27;18.10;99.90
25208;DHT22;13153;52.316;21.166;2022-10-16T17:08:56;18.00;99.90
25208;DHT22;13153;52.316;21.166;2022-10-16T17:11:26;18.10;99.90
25208;DHT22;13153;52.316;21.166;2022-10-16T17:13:54;18.00;99.90
25208;DHT22;13153;52.316;21.166;2022-10-16T17:16:43;18.00;99.90
25208;DHT22;13153;52.316;21.166;2022-10-16T17:19:15;18.00;99.90
25208;DHT22;13153;52.316;21.166;2022-10-16T17:21:42;18.00;99.90
25208;DHT22;13153;52.316;21.166;2022-10-16T17:24:09;18.00;99.90
25208;DHT22;13153;52.316;21.166;2022-10-16T17:26:36;17.90;99.90
25208;DHT22;13153;52.316;21.166;2022-10-16T17:29:03;17.90;99.90
25208;DHT22;13153;52.316;21.166;2022-10-16T17:31:34;17.90;99.90